Latest Weather Observations for Dalby

IDQ60801

Issued at 11:32 pm EST Saturday 6 February 2016 (issued every 30 minutes, with the page automatically refreshed every 10 minutes)

About weather observations | Map of weather stations | Latest weather observations for QLD | Other Formats
Station Details ID: 041522 Name: DALBY AIRPORT Lat: -27.16 Lon: 151.26 Height: 343.9 m
Data from the previous 72 hours. | See also: Recent months at Dalby
Date/Time
EST
Temp
°C
App
Temp
°C
Dew
Point
Rel
Hum
%
Delta-T
°C
Wind Press
QNH
hPa
Press
MSL
hPa
Rain
since 9 am
mm
Dir
 
Spd
km/h
Gust
km/h
Spd
kts
Gust
kts
06/11:30pm 20.6 21.2 18.7 89 1.2 S 13 15 7 8 1013.3 1011.3 2.4
06/11:00pm 20.5 21.9 18.6 89 1.2 S 9 13 5 7 1013.5 1011.5 2.4
06/10:30pm 20.5 21.1 18.6 89 1.2 SE 13 15 7 8 1013.6 1011.6 2.4
06/10:00pm 20.5 21.1 18.6 89 1.2 ESE 13 17 7 9 1013.6 1011.6 2.4
06/09:30pm 20.6 20.0 18.5 88 1.3 E 19 22 10 12 1013.4 1011.4 2.4
06/09:00pm 20.7 20.0 18.6 88 1.3 ESE 20 24 11 13 1013.4 1011.4 2.2
06/08:30pm 20.7 20.6 18.8 89 1.2 ESE 17 20 9 11 1013.0 1011.0 2.2
06/08:00pm 20.9 20.5 19.0 89 1.2 E 19 22 10 12 1013.0 1011.0 1.6
06/07:30pm 21.2 19.5 18.9 87 1.5 E 26 35 14 19 1012.1 1010.0 0.8
06/07:00pm 21.3 20.4 19.0 87 1.5 ESE 22 26 12 14 1011.9 1009.8 0.6
06/06:30pm 21.7 20.6 18.7 83 1.9 SE 22 32 12 17 1011.6 1009.6 0.6
06/06:00pm 23.0 19.9 17.5 71 3.5 SE 30 43 16 23 1011.0 1009.0 0.4
06/05:30pm 24.1 22.6 18.5 71 3.6 ESE 24 30 13 16 1010.2 1008.2 0.4
06/05:00pm 24.1 22.0 18.1 69 3.8 SE 26 35 14 19 1010.1 1008.1 0.4
06/04:30pm 24.8 23.6 18.3 67 4.2 SE 22 32 12 17 1010.0 1007.9 0.4
06/04:00pm 24.5 19.9 17.2 63 4.6 ESE 37 50 20 27 1010.0 1007.9 0.4
06/03:30pm 25.5 22.9 17.7 62 5.0 SE 28 39 15 21 1009.7 1007.6 0.4
06/03:00pm 23.2 19.9 17.0 68 3.9 ESE 30 48 16 26 1010.2 1008.2 0.4
06/02:54pm 24.6 22.0 17.8 66 4.3 ESE 28 48 15 26 1010.3 1008.3 0.4
06/02:30pm 24.4 24.0 18.8 71 3.6 ESE 19 28 10 15 1010.2 1008.2 0.4
06/02:00pm 23.5 21.5 19.2 77 2.8 ESE 28 39 15 21 1010.4 1008.4 0.4
06/01:30pm 27.4 25.9 17.8 55 6.2 E 22 32 12 17 1010.2 1008.2 0.0
06/01:00pm 26.3 22.7 17.1 57 5.8 E 32 41 17 22 1010.4 1008.4 0.0
06/12:30pm 26.9 24.5 17.4 56 6.0 ESE 26 35 14 19 1010.5 1008.5 0.0
06/12:00pm 26.9 25.0 17.7 57 5.9 ESE 24 35 13 19 1010.9 1008.9 0.0
06/11:30am 25.7 23.3 17.4 60 5.3 SE 26 35 14 19 1011.3 1009.3 0.0
06/11:00am 25.9 22.3 17.3 59 5.4 ESE 32 46 17 25 1011.5 1009.5 0.0
06/10:30am 25.3 21.3 16.7 59 5.4 ESE 33 46 18 25 1011.8 1009.7 0.0
06/10:00am 24.9 21.0 16.9 61 5.0 ESE 33 48 18 26 1012.0 1009.9 0.0
06/09:30am 24.5 19.7 17.5 65 4.4 ESE 39 50 21 27 1012.1 1010.0 0.0
06/09:00am 23.5 19.7 17.3 68 3.9 ESE 33 43 18 23 1012.0 1009.9 0.4
06/08:30am 23.3 19.5 17.3 69 3.8 ESE 33 44 18 24 1011.6 1009.6 0.4
06/08:00am 22.6 19.4 17.3 72 3.3 ESE 30 43 16 23 1011.6 1009.6 0.4
06/07:30am 22.0 19.5 17.2 74 3.0 ESE 26 39 14 21 1011.6 1009.6 0.4
06/07:00am 20.9 20.0 16.9 78 2.5 SE 17 24 9 13 1011.4 1009.4 0.4
06/06:30am 20.3 20.5 16.7 80 2.2 SSE 11 19 6 10 1011.2 1009.2 0.4
06/06:00am 20.0 19.3 16.4 80 2.2 SE 15 19 8 10 1010.7 1008.7 0.4
06/05:30am 19.7 19.0 16.3 81 2.1 SSE 15 19 8 10 1010.3 1008.3 0.4
06/05:00am 19.7 19.4 16.5 82 2.0 SSE 13 17 7 9 1009.9 1007.8 0.4
06/04:30am 19.5 19.3 16.7 84 1.7 SE 13 19 7 10 1009.6 1007.5 0.4
06/04:00am 19.5 19.7 16.7 84 1.7 SSE 11 15 6 8 1009.6 1007.5 0.4
06/03:30am 19.7 19.4 16.5 82 2.0 SSE 13 17 7 9 1009.6 1007.5 0.4
06/03:00am 19.6 19.2 16.3 81 2.0 SE 13 17 7 9 1009.4 1007.3 0.4
06/02:30am 19.9 19.4 16.0 78 2.4 SE 13 17 7 9 1009.5 1007.4 0.4
06/02:00am 20.4 19.6 16.0 76 2.7 SE 15 20 8 11 1009.6 1007.5 0.4
06/01:30am 20.7 18.9 15.9 74 2.9 ESE 20 26 11 14 1009.6 1007.5 0.4
06/01:00am 20.8 19.0 16.0 74 2.9 ESE 20 24 11 13 1010.1 1008.1 0.4
06/12:30am 21.2 18.3 16.0 72 3.2 ESE 26 35 14 19 1010.4 1008.4 0.4
06/12:00am 21.4 18.7 15.7 70 3.5 ESE 24 32 13 17 1010.7 1008.7 0.4
 
Date/Time
EST
Temp
°C
App
Temp
°C
Dew
Point
Rel
Hum
%
Delta-T
°C
Wind Press
QNH
hPa
Press
MSL
hPa
Rain
since 9 am
mm
Dir
 
Spd
km/h
Gust
km/h
Spd
kts
Gust
kts
05/11:30pm 21.8 18.7 15.6 68 3.8 ESE 26 33 14 18 1011.1 1009.1 0.4
05/11:00pm 21.9 17.7 15.7 68 3.8 ESE 32 41 17 22 1010.9 1008.9 0.4
05/10:30pm 22.1 18.1 16.1 69 3.7 E 32 43 17 23 1010.9 1008.9 0.4
05/10:00pm 22.4 18.5 16.4 69 3.7 E 32 39 17 21 1011.1 1009.1 0.4
05/09:30pm 22.5 20.0 17.0 71 3.4 ESE 26 32 14 17 1011.0 1009.0 0.4
05/09:00pm 22.6 21.5 17.7 74 3.1 ESE 20 26 11 14 1011.1 1009.1 0.4
05/08:30pm 22.7 21.7 18.0 75 3.0 ESE 20 24 11 13 1010.8 1008.8 0.4
05/08:00pm 22.5 21.7 18.1 76 2.8 ESE 19 22 10 12 1010.4 1008.4 0.4
05/07:30pm 23.5 20.8 17.5 69 3.8 ESE 28 35 15 19 1010.0 1007.9 0.4
05/07:00pm 23.6 22.5 17.8 70 3.7 E 20 28 11 15 1009.6 1007.5 0.4
05/06:30pm 24.2 21.9 17.7 67 4.1 E 26 37 14 20 1009.2 1007.1 0.4
05/06:00pm 24.6 21.6 17.8 66 4.3 E 30 39 16 21 1009.1 1007.0 0.4
05/05:30pm 25.2 24.0 18.4 66 4.4 ESE 22 28 12 15 1008.8 1006.7 0.4
05/05:00pm 25.3 23.3 18.2 64 4.6 E 26 37 14 20 1008.5 1006.5 0.4
05/04:30pm 25.4 23.9 18.6 66 4.4 E 24 32 13 17 1008.3 1006.3 0.4
05/04:00pm 24.9 23.0 18.6 68 4.1 ESE 26 33 14 18 1008.5 1006.5 0.4
05/03:30pm 24.4 23.4 18.8 71 3.6 E 22 30 12 16 1008.8 1006.7 0.4
05/03:00pm 24.1 22.4 19.0 73 3.3 ESE 26 33 14 18 1008.9 1006.8 0.4
05/02:30pm 24.0 21.9 18.9 73 3.3 E 28 35 15 19 1009.1 1007.0 0.4
05/02:00pm 23.1 21.7 18.8 77 2.8 ESE 24 32 13 17 1009.7 1007.6 0.4
05/01:30pm 23.3 20.6 18.4 74 3.1 ESE 30 35 16 19 1009.9 1007.8 0.4
05/01:00pm 23.0 21.1 18.5 76 2.9 ESE 26 35 14 19 1010.2 1008.2 0.4
05/12:30pm 22.4 20.9 19.4 83 1.9 ESE 26 39 14 21 1010.3 1008.3 0.4
05/12:00pm 21.9 20.6 19.1 84 1.8 SE 24 30 13 16 1010.7 1008.7 0.2
05/11:30am 21.7 20.3 18.9 84 1.8 SE 24 33 13 18 1010.9 1008.9 0.2
05/11:00am 21.8 21.1 18.6 82 2.0 SE 20 26 11 14 1011.1 1009.1 0.2
05/10:30am 22.3 21.4 18.3 78 2.5 ESE 20 24 11 13 1011.0 1009.0 0.0
05/10:00am 22.4 21.0 18.0 76 2.8 ESE 22 32 12 17 1010.7 1008.7 0.0
05/09:30am 22.3 20.8 17.7 75 2.9 ESE 22 28 12 15 1010.4 1008.4 0.0
05/09:00am 22.1 20.2 17.7 76 2.8 ESE 24 30 13 16 1010.0 1007.9 3.6
05/08:30am 21.7 20.6 17.7 78 2.5 ESE 20 30 11 16 1009.9 1007.8 3.6
05/08:00am 21.2 20.2 18.0 82 2.0 SE 20 32 11 17 1009.7 1007.6 3.6
05/07:30am 21.0 20.2 18.0 83 1.9 SE 19 24 10 13 1009.5 1007.4 3.6
05/07:00am 21.0 20.0 17.6 81 2.1 SE 19 24 10 13 1009.2 1007.1 3.6
05/06:30am 20.8 20.1 17.4 81 2.1 ESE 17 22 9 12 1009.0 1006.9 3.6
05/06:00am 20.7 20.1 17.5 82 2.0 SE 17 24 9 13 1008.3 1006.3 3.6
05/05:30am 20.6 20.3 17.4 82 2.0 ESE 15 19 8 10 1008.0 1006.0 3.6
05/05:00am 20.6 19.9 17.4 82 2.0 SE 17 20 9 11 1007.7 1005.7 3.6
05/04:30am 20.7 20.1 17.5 82 2.0 SE 17 22 9 12 1007.4 1005.3 3.6
05/04:00am 20.5 19.9 17.5 83 1.9 SE 17 20 9 11 1007.1 1005.0 3.6
05/03:30am 20.4 19.8 17.6 84 1.7 SE 17 20 9 11 1007.1 1005.0 3.6
05/03:00am 20.4 19.4 17.6 84 1.8 SE 19 24 10 13 1007.0 1004.9 3.6
05/02:30am 20.3 19.2 17.3 83 1.9 ESE 19 24 10 13 1007.1 1005.0 3.6
05/02:00am 20.3 19.7 17.5 84 1.7 SE 17 22 9 12 1007.3 1005.2 3.6
05/01:30am 20.3 20.0 17.3 83 1.9 SE 15 19 8 10 1007.4 1005.3 3.6
05/01:00am 20.4 19.7 17.4 83 1.9 SE 17 22 9 12 1007.7 1005.7 3.6
05/12:30am 20.4 19.2 17.4 83 1.9 ESE 20 26 11 14 1007.8 1005.8 3.6
05/12:00am 20.4 19.1 17.2 82 2.0 E 20 28 11 15 1008.4 1006.4 3.6
 
Date/Time
EST
Temp
°C
App
Temp
°C
Dew
Point
Rel
Hum
%
Delta-T
°C
Wind Press
QNH
hPa
Press
MSL
hPa
Rain
since 9 am
mm
Dir
 
Spd
km/h
Gust
km/h
Spd
kts
Gust
kts
04/11:30pm 20.4 19.0 17.0 81 2.1 ESE 20 26 11 14 1008.9 1006.8 3.6
04/11:00pm 20.1 18.6 16.3 79 2.3 ESE 19 24 10 13 1009.2 1007.1 3.6
04/10:30pm 20.3 17.2 15.7 75 2.8 E 26 33 14 18 1009.0 1006.9 3.6
04/10:00pm 20.4 17.0 15.8 75 2.8 E 28 35 15 19 1008.9 1006.8 3.6
04/09:30pm 20.2 17.1 16.6 80 2.2 E 28 35 15 19 1009.3 1007.2 3.6
04/09:00pm 20.5 17.5 16.7 79 2.3 E 28 39 15 21 1009.2 1007.1 3.6
04/08:30pm 21.1 18.6 18.1 83 1.9 ESE 28 39 15 21 1009.0 1006.9 3.6
04/08:00pm 21.2 19.8 18.9 87 1.5 ESE 24 30 13 16 1008.5 1006.5 3.6
04/07:30pm 21.4 20.6 19.3 88 1.3 ESE 22 28 12 15 1008.4 1006.4 3.6
04/07:00pm 21.4 19.0 19.1 87 1.5 E 30 41 16 22 1007.7 1005.7 3.6
04/06:30pm 21.6 21.6 19.7 89 1.2 E 19 28 10 15 1007.5 1005.5 3.0
04/06:00pm 22.4 21.1 19.8 85 1.7 ESE 26 33 14 18 1006.7 1004.6 1.0
04/05:30pm 22.6 19.1 19.6 83 1.9 E 37 48 20 26 1005.7 1003.6 1.0
04/05:00pm 23.6 21.7 20.1 81 2.3 E 30 39 16 21 1005.1 1003.1 0.2
04/04:30pm 25.3 22.4 20.8 76 3.0 E 37 48 20 26 1004.4 1002.3 0.0
04/04:00pm 27.0 24.6 21.1 70 4.0 E 35 43 19 23 1003.7 1001.6 0.0
04/03:30pm 28.7 27.2 21.7 66 4.8 E 32 41 17 22 1003.5 1001.4 0.0
04/03:00pm 29.2 28.6 21.9 64 5.0 E 28 37 15 20 1003.6 1001.5 0.0
04/02:30pm 29.2 29.1 22.2 66 4.8 E 26 32 14 17 1004.2 1002.1 0.0
04/02:00pm 28.9 29.6 22.9 70 4.2 ESE 24 33 13 18 1004.6 1002.5 0.0
04/01:30pm 29.8 33.4 23.0 67 4.7 SSE 9 13 5 7 1005.0 1003.0 0.0
04/01:00pm 29.8 33.0 22.3 64 5.2 ESE 9 15 5 8 1005.3 1003.3 0.0
04/12:30pm 29.5 32.4 21.7 63 5.3 ESE 9 15 5 8 1005.8 1003.7 0.0
04/12:00pm 28.9 32.3 21.7 65 4.9 SE 6 17 3 9 1006.1 1004.0 0.0
04/11:30am 28.5 32.0 21.8 67 4.6 ENE 6 11 3 6 1006.3 1004.2 0.0
04/11:00am 27.7 31.0 22.6 74 3.5 E 9 13 5 7 1006.5 1004.4 0.0
04/10:30am 26.8 30.3 21.8 74 3.4 ESE 6 13 3 7 1006.3 1004.2 0.0
04/10:00am 26.7 30.2 22.1 76 3.1 ESE 7 11 4 6 1006.2 1004.1 0.0
04/09:30am 25.9 30.8 22.4 81 2.4 CALM 0 0 0 0 1006.1 1004.0 0.0
04/09:00am 25.5 28.6 22.2 82 2.2 NW 9 11 5 6 1006.1 1004.0 4.2
04/08:30am 24.9 27.6 22.2 85 1.8 N 11 15 6 8 1006.2 1004.1 4.2
04/08:00am 24.3 27.5 21.6 85 1.8 NE 7 9 4 5 1006.0 1003.9 4.2
04/07:30am 23.7 28.1 21.4 87 1.5 CALM 0 0 0 0 1006.2 1004.1 4.2
04/07:00am 23.4 26.7 21.5 89 1.3 NE 6 7 3 4 1006.0 1003.9 4.2
04/06:30am 22.8 26.0 21.3 91 1.0 ENE 6 7 3 4 1005.8 1003.7 4.2
04/06:00am 22.2 25.1 20.7 91 1.0 NE 6 7 3 4 1005.3 1003.3 4.2
04/05:30am 21.4 23.7 19.9 91 1.0 E 7 7 4 4 1004.9 1002.9 4.2
04/05:00am 21.4 23.4 19.9 91 1.0 ENE 9 11 5 6 1004.6 1002.5 4.2
04/04:30am 21.7 24.4 20.2 91 1.0 N 6 7 3 4 1004.0 1001.9 4.2
04/04:00am 21.8 24.0 20.3 91 1.0 NNW 9 9 5 5 1003.7 1001.6 4.2
04/03:30am 21.8 23.6 20.3 91 1.0 NW 11 13 6 7 1003.5 1001.4 4.2
04/03:00am 21.8 23.9 20.1 90 1.1 NW 9 11 5 6 1003.4 1001.3 4.0
04/02:30am 22.1 24.7 20.4 90 1.1 N 7 13 4 7 1003.4 1001.3 4.0
04/02:00am 22.2 24.1 20.5 90 1.1 NNW 11 13 6 7 1003.5 1001.4 4.0
04/01:30am 22.4 24.6 20.5 89 1.2 N 9 13 5 7 1003.8 1001.7 4.0
04/01:00am 22.7 24.8 21.0 90 1.1 N 11 15 6 8 1004.3 1002.2 4.0
04/12:30am 22.7 24.1 21.0 90 1.1 NNW 15 19 8 10 1004.6 1002.5 4.0
04/12:00am 22.6 23.4 20.7 89 1.3 NNW 17 20 9 11 1005.0 1003.0 4.0

Other Formats:

Comma delimited format used in spreadsheet applications
http://www.bom.gov.au/fwo/IDQ60801/IDQ60801.94542.axf

JavaScript Object Notation format (JSON) in row-major order
http://www.bom.gov.au/fwo/IDQ60801/IDQ60801.94542.json